createdAt,value
2022-12-18T00:01:07.250Z,30.13
2022-12-18T00:03:37.493Z,29.73
2022-12-18T00:06:04.479Z,26.38
2022-12-18T00:08:31.034Z,28.92
2022-12-18T00:11:07.118Z,28.42
2022-12-18T00:13:33.949Z,26.63
2022-12-18T00:16:05.520Z,27.20
2022-12-18T00:18:33.235Z,29.70
2022-12-18T00:21:06.524Z,29.10
2022-12-18T00:23:34.615Z,29.63
2022-12-18T00:26:02.705Z,28.83
2022-12-18T00:28:29.288Z,29.05
2022-12-18T00:31:06.339Z,29.40
2022-12-18T00:33:33.239Z,28.73
2022-12-18T00:36:03.996Z,29.75
2022-12-18T00:38:30.751Z,26.80
2022-12-18T00:40:57.560Z,25.33
2022-12-18T00:43:24.196Z,26.23
2022-12-18T00:45:51.218Z,24.83
2022-12-18T00:48:17.925Z,26.95
2022-12-18T00:50:44.478Z,26.40
2022-12-18T00:53:11.393Z,26.75
2022-12-18T00:55:41.525Z,28.85
2022-12-18T00:58:09.190Z,28.83
2022-12-18T01:00:36.603Z,29.35
2022-12-18T01:03:04.228Z,26.87
2022-12-18T01:05:31.281Z,26.58
2022-12-18T01:07:58.287Z,26.48
2022-12-18T01:10:25.716Z,25.08
2022-12-18T01:12:52.514Z,25.88
2022-12-18T01:15:19.570Z,26.50
2022-12-18T01:17:46.205Z,25.65
2022-12-18T01:20:13.791Z,25.42
2022-12-18T01:22:40.694Z,25.77
2022-12-18T01:25:07.659Z,25.63
2022-12-18T01:27:35.290Z,25.13
2022-12-18T01:30:02.031Z,27.80
2022-12-18T01:32:31.526Z,26.63
2022-12-18T01:34:58.207Z,26.10
2022-12-18T01:37:26.462Z,24.17
2022-12-18T01:39:55.275Z,24.40
2022-12-18T01:42:22.427Z,25.20
2022-12-18T01:45:15.060Z,25.33
2022-12-18T01:47:43.765Z,24.35
2022-12-18T01:50:20.637Z,24.20
2022-12-18T01:52:53.226Z,24.60
2022-12-18T01:55:23.097Z,24.90
2022-12-18T01:57:53.442Z,24.42
2022-12-18T02:00:22.715Z,26.13
2022-12-18T02:02:49.898Z,24.05
2022-12-18T02:05:23.733Z,26.67
2022-12-18T02:08:04.640Z,24.98
2022-12-18T02:11:02.505Z,26.48
2022-12-18T02:13:51.516Z,25.85
2022-12-18T02:16:35.620Z,24.95
2022-12-18T02:19:15.549Z,24.53
2022-12-18T02:21:59.179Z,26.25
2022-12-18T02:24:32.581Z,25.10
2022-12-18T02:27:02.858Z,24.95
2022-12-18T02:29:38.849Z,24.38
2022-12-18T02:32:10.663Z,23.90
2022-12-18T02:34:39.710Z,25.58
2022-12-18T02:37:11.753Z,24.30
2022-12-18T02:39:41.295Z,26.45
2022-12-18T02:42:09.109Z,24.65
2022-12-18T02:44:45.877Z,23.77
2022-12-18T02:47:22.734Z,23.45
2022-12-18T02:49:58.447Z,23.10
2022-12-18T02:52:49.763Z,22.45
2022-12-18T02:55:47.532Z,22.85
2022-12-18T02:58:28.026Z,23.33
2022-12-18T03:01:21.141Z,23.00
2022-12-18T03:03:58.705Z,22.88
2022-12-18T03:06:30.468Z,21.50
2022-12-18T03:09:04.690Z,21.88
2022-12-18T03:11:52.557Z,20.47
2022-12-18T03:14:22.311Z,20.63
2022-12-18T03:16:52.406Z,21.35
2022-12-18T03:19:23.469Z,20.48
2022-12-18T03:21:56.765Z,20.15
2022-12-18T03:24:25.321Z,20.33
2022-12-18T03:26:56.565Z,20.45
2022-12-18T03:29:28.240Z,20.40
2022-12-18T03:31:59.955Z,20.83
2022-12-18T03:34:31.887Z,20.00
2022-12-18T03:36:58.647Z,19.63
2022-12-18T03:39:26.358Z,20.13
2022-12-18T03:42:16.618Z,19.30
2022-12-18T03:45:04.207Z,18.67
2022-12-18T03:47:40.543Z,19.90
2022-12-18T03:50:15.835Z,19.07
2022-12-18T03:52:55.923Z,19.75
2022-12-18T03:55:24.069Z,19.90
2022-12-18T03:57:52.342Z,20.83
2022-12-18T04:00:19.901Z,19.20
2022-12-18T04:02:51.834Z,19.27
2022-12-18T04:05:20.048Z,18.30
2022-12-18T04:07:50.239Z,20.10
2022-12-18T04:10:17.721Z,21.10
2022-12-18T04:12:44.907Z,19.60
2022-12-18T04:15:13.119Z,19.70
2022-12-18T04:17:40.923Z,20.67
2022-12-18T04:20:07.915Z,19.67
2022-12-18T04:22:34.436Z,18.08
2022-12-18T04:25:01.237Z,19.27
2022-12-18T04:27:27.845Z,18.70
2022-12-18T04:29:54.387Z,19.48
2022-12-18T04:32:21.020Z,18.67
2022-12-18T04:34:47.620Z,18.58
2022-12-18T04:37:14.500Z,17.95
2022-12-18T04:39:41.039Z,18.57
2022-12-18T04:42:07.569Z,18.13
2022-12-18T04:44:34.119Z,19.30
2022-12-18T04:47:00.686Z,17.73
2022-12-18T04:49:27.291Z,18.55
2022-12-18T04:51:54.094Z,16.80
2022-12-18T04:54:21.099Z,18.50
2022-12-18T04:56:48.083Z,17.98
2022-12-18T04:59:14.764Z,17.67
2022-12-18T05:01:41.417Z,16.65
2022-12-18T05:04:08.399Z,16.90
2022-12-18T05:06:35.014Z,16.20
2022-12-18T05:09:01.811Z,14.48
2022-12-18T05:11:28.476Z,16.65
2022-12-18T05:13:57.913Z,16.73
2022-12-18T05:16:24.525Z,16.60
2022-12-18T05:18:51.139Z,17.27
2022-12-18T05:21:17.648Z,16.63
2022-12-18T05:23:44.420Z,15.98
2022-12-18T05:26:17.117Z,16.27
2022-12-18T05:28:44.725Z,16.20
2022-12-18T05:31:11.343Z,15.45
2022-12-18T05:33:38.742Z,15.68
2022-12-18T05:36:08.468Z,15.55
2022-12-18T05:38:37.921Z,14.90
2022-12-18T05:41:05.254Z,15.23
2022-12-18T05:43:32.027Z,14.25
2022-12-18T05:45:58.576Z,15.80
2022-12-18T05:48:25.109Z,15.18
2022-12-18T05:50:52.167Z,15.73
2022-12-18T05:53:21.103Z,14.87
2022-12-18T05:55:48.472Z,15.38
2022-12-18T05:58:15.582Z,15.35
2022-12-18T06:00:45.096Z,14.70
2022-12-18T06:03:12.958Z,14.55
2022-12-18T06:05:42.561Z,14.90
2022-12-18T06:08:09.768Z,14.50
2022-12-18T06:10:36.420Z,14.75
2022-12-18T06:13:03.100Z,13.85
2022-12-18T06:15:29.722Z,14.18
2022-12-18T06:17:56.292Z,14.70
2022-12-18T06:20:23.044Z,14.93
2022-12-18T06:22:49.639Z,15.65
2022-12-18T06:25:16.373Z,14.82
2022-12-18T06:27:43.066Z,15.10
2022-12-18T06:30:10.541Z,14.83
2022-12-18T06:32:38.280Z,15.52
2022-12-18T06:35:05.238Z,14.88
2022-12-18T06:37:32.538Z,14.93
2022-12-18T06:39:59.240Z,14.50
2022-12-18T06:42:25.959Z,15.40
2022-12-18T06:44:52.768Z,15.07
2022-12-18T06:47:19.706Z,14.63
2022-12-18T06:49:46.238Z,16.55
2022-12-18T06:52:13.014Z,14.68
2022-12-18T06:54:39.544Z,14.13
2022-12-18T06:57:06.122Z,15.45
2022-12-18T06:59:32.619Z,15.60
2022-12-18T07:01:59.298Z,14.98
2022-12-18T07:04:32.998Z,14.02
2022-12-18T07:06:59.566Z,13.80
2022-12-18T07:09:26.217Z,14.38
2022-12-18T07:11:53.530Z,14.57
2022-12-18T07:14:20.293Z,15.52
2022-12-18T07:16:46.909Z,13.68
2022-12-18T07:19:13.466Z,13.77
2022-12-18T07:21:40.169Z,14.70
2022-12-18T07:24:07.428Z,14.30
2022-12-18T07:26:33.973Z,14.88
2022-12-18T07:29:00.782Z,14.02
2022-12-18T07:31:28.627Z,14.67
2022-12-18T07:33:55.479Z,14.85
2022-12-18T07:36:22.106Z,14.35
2022-12-18T07:38:49.944Z,14.63
2022-12-18T07:41:16.980Z,14.02
2022-12-18T07:43:43.991Z,14.27
2022-12-18T07:46:13.544Z,13.98
2022-12-18T07:48:41.294Z,15.95
2022-12-18T07:51:08.658Z,13.68
2022-12-18T07:53:37.159Z,14.65
2022-12-18T07:58:54.494Z,13.52
2022-12-18T08:01:21.269Z,14.13
2022-12-18T08:03:48.289Z,12.23
2022-12-18T08:06:15.465Z,14.15
2022-12-18T08:08:43.213Z,13.03
2022-12-18T08:11:09.977Z,13.75
2022-12-18T08:13:36.767Z,13.43
2022-12-18T08:16:06.894Z,13.23
2022-12-18T08:18:34.894Z,13.07
2022-12-18T08:21:16.262Z,14.10
2022-12-18T08:23:44.073Z,12.85
2022-12-18T08:26:12.033Z,13.98
2022-12-18T08:28:38.742Z,12.57
2022-12-18T08:31:05.639Z,11.70
2022-12-18T08:33:33.029Z,13.80
2022-12-18T08:36:01.443Z,13.50
2022-12-18T08:38:28.013Z,11.65
2022-12-18T08:41:06.880Z,12.15
2022-12-18T08:43:52.065Z,13.13
2022-12-18T08:46:20.025Z,13.37
2022-12-18T08:48:47.011Z,13.85
2022-12-18T08:51:13.807Z,14.13
2022-12-18T08:53:40.761Z,12.90
2022-12-18T08:56:08.464Z,12.65
2022-12-18T08:58:35.029Z,13.90
2022-12-18T09:01:06.151Z,14.02
2022-12-18T09:03:33.674Z,13.52
2022-12-18T09:06:00.574Z,12.90
2022-12-18T09:08:27.889Z,12.82
2022-12-18T09:10:55.220Z,13.13
2022-12-18T09:13:22.138Z,12.57
2022-12-18T09:15:51.413Z,13.23
2022-12-18T09:18:19.428Z,13.32
2022-12-18T09:20:46.483Z,12.05
2022-12-18T09:23:13.436Z,12.77
2022-12-18T09:25:40.601Z,13.27
2022-12-18T09:28:11.784Z,13.00
2022-12-18T09:30:39.901Z,13.80
2022-12-18T09:33:06.684Z,12.77
2022-12-18T09:35:41.833Z,13.27
2022-12-18T09:38:12.368Z,13.25
2022-12-18T09:40:56.706Z,13.23
2022-12-18T09:43:52.220Z,13.77
2022-12-18T09:46:27.422Z,11.73
2022-12-18T09:48:57.721Z,12.47
2022-12-18T09:51:30.892Z,14.20
2022-12-18T09:54:05.834Z,14.32
2022-12-18T09:56:37.386Z,14.35
2022-12-18T09:59:05.100Z,14.45
2022-12-18T10:01:41.548Z,13.23
2022-12-18T10:04:10.990Z,13.43
2022-12-18T10:06:50.099Z,13.10
2022-12-18T10:10:02.055Z,13.07
2022-12-18T10:12:37.925Z,13.43
2022-12-18T10:15:38.672Z,13.53
2022-12-18T10:18:30.393Z,14.25
2022-12-18T10:21:04.156Z,14.45
2022-12-18T10:23:42.499Z,13.45
2022-12-18T10:26:15.556Z,15.13
2022-12-18T10:28:43.538Z,14.00
2022-12-18T10:31:24.292Z,14.05
2022-12-18T10:33:52.312Z,13.15
2022-12-18T10:36:18.818Z,14.20
2022-12-18T10:38:45.398Z,13.05
2022-12-18T10:41:33.328Z,13.03
2022-12-18T10:44:22.363Z,12.63
2022-12-18T10:46:57.116Z,13.45
2022-12-18T10:49:27.952Z,16.98
2022-12-18T10:52:13.200Z,16.35
2022-12-18T10:54:40.030Z,13.67
2022-12-18T10:57:31.012Z,14.27
2022-12-18T10:59:59.782Z,14.30
2022-12-18T11:02:36.542Z,15.30
2022-12-18T11:05:23.319Z,16.48
2022-12-18T11:07:51.499Z,13.87
2022-12-18T11:10:19.760Z,11.00
2022-12-18T11:12:46.654Z,13.38
2022-12-18T11:15:21.016Z,12.73
2022-12-18T11:17:50.981Z,14.02
2022-12-18T11:20:35.230Z,17.20
2022-12-18T11:23:11.379Z,15.77
2022-12-18T11:25:38.142Z,13.60
2022-12-18T11:28:26.039Z,12.88
2022-12-18T11:31:13.442Z,14.15
2022-12-18T11:36:55.718Z,11.68
2022-12-18T11:39:41.685Z,12.63
2022-12-18T11:42:32.143Z,12.57
2022-12-18T11:45:03.467Z,13.38
2022-12-18T11:48:18.400Z,13.63
2022-12-18T11:50:52.161Z,12.73
2022-12-18T11:53:19.975Z,12.32
2022-12-18T11:56:03.362Z,12.25
2022-12-18T11:58:44.991Z,13.35
2022-12-18T12:01:17.873Z,14.07
2022-12-18T12:03:59.373Z,12.95
2022-12-18T12:06:37.944Z,13.52
2022-12-18T12:09:23.100Z,13.55
2022-12-18T12:12:12.703Z,13.45
2022-12-18T12:15:03.761Z,13.97
2022-12-18T12:17:30.290Z,13.50
2022-12-18T12:20:00.645Z,14.43
2022-12-18T12:22:46.147Z,14.20
2022-12-18T12:25:22.322Z,13.73
2022-12-18T12:27:54.674Z,13.30
2022-12-18T12:30:31.074Z,12.73
2022-12-18T12:33:28.755Z,14.05
2022-12-18T12:36:36.499Z,13.52
2022-12-18T12:39:09.110Z,13.15
2022-12-18T12:41:58.227Z,13.30
2022-12-18T12:44:43.285Z,13.13
2022-12-18T12:47:31.687Z,15.13
2022-12-18T12:50:02.341Z,14.05
2022-12-18T12:52:42.838Z,15.68
2022-12-18T12:55:24.609Z,14.50
2022-12-18T12:58:07.393Z,15.00
2022-12-18T13:00:50.223Z,13.88
2022-12-18T13:03:36.360Z,13.80
2022-12-18T13:06:20.471Z,13.45
2022-12-18T13:08:59.969Z,14.57
2022-12-18T13:12:00.000Z,13.65
2022-12-18T13:14:34.323Z,13.93
2022-12-18T13:17:22.319Z,14.07
2022-12-18T13:20:03.459Z,14.05
2022-12-18T13:22:37.324Z,13.43
2022-12-18T13:25:32.861Z,15.65
2022-12-18T13:28:16.817Z,14.80
2022-12-18T13:30:49.192Z,14.18
2022-12-18T13:33:21.319Z,15.30
2022-12-18T13:35:47.941Z,14.73
2022-12-18T13:38:32.828Z,15.23
2022-12-18T13:41:01.824Z,13.88
2022-12-18T13:43:28.610Z,13.55
2022-12-18T13:46:21.871Z,14.90
2022-12-18T13:49:13.980Z,17.47
2022-12-18T13:51:52.673Z,15.02
2022-12-18T13:54:40.553Z,15.27
2022-12-18T13:57:33.672Z,14.82
2022-12-18T14:00:18.291Z,14.25
2022-12-18T14:02:46.640Z,15.10
2022-12-18T14:05:35.181Z,14.45
2022-12-18T14:08:11.037Z,15.27
2022-12-18T14:10:48.628Z,15.13
2022-12-18T14:13:30.111Z,15.60
2022-12-18T14:15:57.194Z,14.50
2022-12-18T14:18:49.650Z,14.98
2022-12-18T14:21:27.286Z,15.25
2022-12-18T14:24:19.491Z,16.00
2022-12-18T14:26:47.709Z,16.63
2022-12-18T14:29:30.074Z,15.73
2022-12-18T14:32:18.279Z,15.32
2022-12-18T14:34:50.174Z,17.80
2022-12-18T14:37:21.790Z,17.63
2022-12-18T14:39:59.192Z,18.38
2022-12-18T14:42:29.586Z,16.67
2022-12-18T14:45:39.175Z,17.55
2022-12-18T14:48:37.427Z,16.38
2022-12-18T14:51:26.022Z,18.50
2022-12-18T14:54:10.821Z,17.73
2022-12-18T14:56:44.345Z,16.43
2022-12-18T14:59:26.273Z,18.20
2022-12-18T15:02:05.906Z,18.10
2022-12-18T15:04:36.232Z,14.82
2022-12-18T15:07:13.469Z,17.00
2022-12-18T15:09:42.703Z,18.43
2022-12-18T15:12:39.329Z,15.52
2022-12-18T15:15:26.713Z,16.10
2022-12-18T15:18:00.257Z,15.70
2022-12-18T15:20:26.861Z,16.25
2022-12-18T15:22:53.682Z,17.03
2022-12-18T15:25:35.195Z,16.00
2022-12-18T15:28:01.764Z,16.48
2022-12-18T15:30:28.326Z,14.95
2022-12-18T15:33:23.231Z,13.93
2022-12-18T15:35:57.820Z,15.27
2022-12-18T15:38:24.445Z,15.18
2022-12-18T15:40:50.961Z,15.77
2022-12-18T15:43:36.215Z,16.35
2022-12-18T15:46:04.142Z,15.55
2022-12-18T15:48:32.868Z,15.67
2022-12-18T15:50:59.642Z,16.55
2022-12-18T15:53:30.094Z,16.38
2022-12-18T15:56:15.446Z,15.07
2022-12-18T15:58:43.158Z,15.60
2022-12-18T16:01:11.127Z,15.40
2022-12-18T16:03:37.897Z,15.27
2022-12-18T16:06:04.775Z,13.73
2022-12-18T16:08:31.911Z,14.88
2022-12-18T16:10:59.305Z,15.27
2022-12-18T16:13:25.837Z,14.60
2022-12-18T16:15:52.547Z,14.13
2022-12-18T16:18:19.209Z,14.02
2022-12-18T16:20:46.178Z,15.32
2022-12-18T16:23:12.698Z,15.73
2022-12-18T16:25:39.620Z,17.70
2022-12-18T16:28:06.166Z,16.23
2022-12-18T16:30:38.186Z,17.38
2022-12-18T16:33:05.556Z,21.02
2022-12-18T16:35:34.015Z,19.98
2022-12-18T16:38:00.629Z,15.87
2022-12-18T16:40:27.268Z,20.45
2022-12-18T16:42:53.776Z,19.27
2022-12-18T16:45:20.434Z,18.13
2022-12-18T16:47:47.031Z,15.15
2022-12-18T16:50:13.734Z,15.77
2022-12-18T16:52:40.640Z,15.07
2022-12-18T16:55:08.019Z,14.57
2022-12-18T16:57:34.572Z,15.70
2022-12-18T17:00:05.202Z,15.73
2022-12-18T17:02:32.683Z,17.13
2022-12-18T17:04:59.741Z,16.83
2022-12-18T17:07:27.025Z,14.40
2022-12-18T17:09:54.381Z,16.05
2022-12-18T17:12:21.283Z,14.27
2022-12-18T17:14:48.424Z,14.40
2022-12-18T17:17:23.855Z,16.92
2022-12-18T17:19:52.168Z,15.10
2022-12-18T17:22:19.256Z,14.75
2022-12-18T17:24:46.823Z,14.85
2022-12-18T17:27:13.366Z,15.27
2022-12-18T17:29:45.400Z,14.90
2022-12-18T17:32:14.200Z,14.57
2022-12-18T17:34:41.275Z,14.82
2022-12-18T17:37:08.354Z,16.08
2022-12-18T17:39:34.881Z,14.17
2022-12-18T17:42:01.545Z,14.60
2022-12-18T17:44:28.211Z,14.85
2022-12-18T17:46:55.051Z,14.70
2022-12-18T17:49:21.832Z,13.77
2022-12-18T17:51:49.021Z,14.40
2022-12-18T17:54:15.681Z,14.95
2022-12-18T17:56:42.256Z,14.88
2022-12-18T17:59:09.477Z,15.60
2022-12-18T18:01:42.365Z,15.07
2022-12-18T18:04:11.130Z,14.57
2022-12-18T18:06:39.156Z,15.25
2022-12-18T18:09:10.304Z,15.40
2022-12-18T18:12:02.375Z,15.10
2022-12-18T18:14:29.112Z,16.40
2022-12-18T18:16:56.247Z,15.83
2022-12-18T18:19:25.306Z,14.25
2022-12-18T18:21:53.653Z,15.07
2022-12-18T18:24:25.963Z,15.13
2022-12-18T18:26:52.617Z,15.20
2022-12-18T18:29:22.234Z,15.23
2022-12-18T18:31:49.149Z,13.75
2022-12-18T18:34:25.056Z,16.70
2022-12-18T18:36:52.451Z,16.20
2022-12-18T18:39:19.631Z,15.23
2022-12-18T18:41:48.212Z,15.10
2022-12-18T18:44:19.019Z,15.02
2022-12-18T18:46:45.740Z,14.68
2022-12-18T18:49:13.772Z,14.52
2022-12-18T18:51:41.570Z,15.50
2022-12-18T18:54:08.331Z,15.03
2022-12-18T18:56:56.586Z,15.93
2022-12-18T18:59:21.518Z,15.48
2022-12-18T19:01:56.273Z,15.75
2022-12-18T19:04:22.907Z,16.10
2022-12-18T19:06:49.662Z,16.37
2022-12-18T19:09:16.151Z,15.73
2022-12-18T19:12:01.753Z,17.15
2022-12-18T19:14:28.325Z,16.20
2022-12-18T19:16:54.915Z,15.45
2022-12-18T19:19:22.349Z,15.93
2022-12-18T19:21:50.031Z,17.15
2022-12-18T19:24:16.638Z,16.63
2022-12-18T19:26:43.705Z,17.23
2022-12-18T19:29:12.113Z,16.50
2022-12-18T19:31:38.830Z,16.27
2022-12-18T19:34:07.037Z,15.98
2022-12-18T19:36:36.110Z,15.65
2022-12-18T19:39:11.587Z,16.33
2022-12-18T19:41:38.314Z,15.95
2022-12-18T19:44:08.042Z,15.03
2022-12-18T19:46:35.899Z,16.45
2022-12-18T19:49:02.803Z,15.77
2022-12-18T19:51:31.047Z,15.77
2022-12-18T19:54:01.414Z,15.25
2022-12-18T19:56:32.240Z,15.70
2022-12-18T19:58:59.637Z,16.52
2022-12-18T20:01:27.794Z,14.10
2022-12-18T20:03:55.725Z,16.10
2022-12-18T20:06:36.409Z,14.93
2022-12-18T20:09:07.386Z,15.83
2022-12-18T20:11:40.184Z,15.73
2022-12-18T20:14:12.212Z,15.65
2022-12-18T20:16:38.961Z,15.85
2022-12-18T20:19:06.357Z,16.33
2022-12-18T20:21:33.080Z,16.27
2022-12-18T20:24:01.184Z,16.52
2022-12-18T20:26:27.747Z,17.88
2022-12-18T20:28:54.784Z,17.45
2022-12-18T20:31:21.624Z,17.63
2022-12-18T20:33:49.945Z,17.13
2022-12-18T20:36:23.422Z,17.90
2022-12-18T20:38:55.771Z,18.85
2022-12-18T20:41:25.043Z,19.98
2022-12-18T20:43:51.665Z,19.17
2022-12-18T20:46:18.768Z,19.27
2022-12-18T20:48:45.802Z,18.38
2022-12-18T20:51:15.583Z,18.92
2022-12-18T20:53:42.552Z,19.42
2022-12-18T20:56:20.350Z,20.42
2022-12-18T20:58:49.080Z,20.40
2022-12-18T21:01:18.401Z,19.15
2022-12-18T21:03:46.115Z,20.45
2022-12-18T21:06:14.241Z,21.40
2022-12-18T21:08:41.016Z,21.35
2022-12-18T21:11:45.621Z,20.50
2022-12-18T21:14:14.895Z,21.33
2022-12-18T21:16:43.977Z,21.50
2022-12-18T21:19:16.430Z,22.58
2022-12-18T21:21:43.927Z,21.58
2022-12-18T21:24:11.042Z,20.67
2022-12-18T21:26:44.956Z,22.33
2022-12-18T21:29:15.204Z,20.83
2022-12-18T21:31:42.936Z,20.45
2022-12-18T21:34:16.600Z,22.35
2022-12-18T21:36:44.210Z,22.40
2022-12-18T21:39:10.791Z,21.60
2022-12-18T21:41:56.060Z,22.85
2022-12-18T21:44:23.176Z,22.45
2022-12-18T21:46:55.841Z,22.27
2022-12-18T21:49:27.134Z,23.67
2022-12-18T21:51:55.971Z,22.13
2022-12-18T21:54:23.300Z,21.92
2022-12-18T21:56:58.200Z,22.60
2022-12-18T21:59:35.095Z,21.00
2022-12-18T22:02:13.862Z,22.90
2022-12-18T22:04:41.421Z,23.33
2022-12-18T22:07:09.796Z,22.90
2022-12-18T22:09:37.931Z,21.67
2022-12-18T22:12:04.810Z,22.35
2022-12-18T22:14:32.140Z,22.80
2022-12-18T22:16:58.823Z,21.50
2022-12-18T22:19:26.302Z,22.98
2022-12-18T22:21:53.432Z,23.67
2022-12-18T22:24:29.179Z,23.25
2022-12-18T22:27:02.005Z,22.77
2022-12-18T22:29:48.027Z,23.08
2022-12-18T22:32:17.810Z,21.98
2022-12-18T22:35:01.701Z,22.75
2022-12-18T22:37:31.725Z,21.75
2022-12-18T22:39:58.265Z,22.30
2022-12-18T22:42:25.460Z,20.15
2022-12-18T22:44:51.997Z,22.40
2022-12-18T22:47:18.619Z,22.48
